^^
Datos históricos de la estación: Murcia-Puente Tocinos
Diario Informe para Diciembre 1, 2019 Unidades:  Ambas    Ingés   Métrico
Diario Semanal Mensual Anual
  Máxima: Mínima: Promedio:
Temperatura: 68 °F /  20 °C 48.4 °F /  9.1 °C 57.2 °F /  14 °C
Punto de rocio: 53.4 °F /  11.9 °C 45 °F /  7.2 °C 49.1 °F /  9.5 °C
Humedad: 91% 47.6% 77%
Velocidad viento: 10mph /  16.1km/h - 4mph /  6.4km/h
Racha viento: 16.3mph /  26.2km/h - -
Viento- - SSE
Presión: 29.9 in /  1013.4 hPa 29.8 in /  1008.0 hPa -
Precipitación: 0 in /  0.0 mm    
 
 
Tabla de datos para Diciembre 1, 2019
Hora Temperatura Punto de rocio Presión Viento Velocidad viento Racha viento Humedad Intensidad lluvia(por hora) Nubes
00:04 55.9 °F /  13.3 °C 51.6 °F /  10.9 °C 29.9in /  1013.4hPa OSO 2.5mph /  4.1km/h 5.2mph /  8.4km/h 85.6% 0in /  0.0mm
00:09 55.8 °F /  13.2 °C 51.6 °F /  10.9 °C 29.9in /  1013.4hPa SO 2.4mph /  3.9km/h 5mph /  8km/h 86% 0in /  0.0mm
00:14 55.8 °F /  13.2 °C 51.8 °F /  11 °C 29.9in /  1013.3hPa SO 2.9mph /  4.7km/h 5.2mph /  8.4km/h 86.6% 0in /  0.0mm
00:19 55.8 °F /  13.2 °C 52 °F /  11.1 °C 29.9in /  1013.3hPa SSO 3.1mph /  5km/h 5mph /  8km/h 87% 0in /  0.0mm
00:24 55.8 °F /  13.2 °C 51.8 °F /  11 °C 29.9in /  1013.3hPa Sur 3.1mph /  5km/h 5.9mph /  9.5km/h 86.9% 0in /  0.0mm
00:29 55.6 °F /  13.1 °C 51.4 °F /  10.8 °C 29.9in /  1013.2hPa SSE 3.1mph /  5km/h 6.2mph /  10km/h 86% 0in /  0.0mm
00:34 55.2 °F /  12.9 °C 51.1 °F /  10.6 °C 29.9in /  1013.2hPa SSE 3.5mph /  5.6km/h 6.9mph /  11.1km/h 86% 0in /  0.0mm
00:39 54.9 °F /  12.7 °C 50.7 °F /  10.4 °C 29.9in /  1013.2hPa Sur 3.6mph /  5.8km/h 7mph /  11.3km/h 86% 0in /  0.0mm
00:44 54.5 °F /  12.5 °C 50.4 °F /  10.2 °C 29.9in /  1013.2hPa Sur 4.3mph /  7km/h 7.4mph /  11.9km/h 86% 0in /  0.0mm
00:49 54.1 °F /  12.3 °C 50.4 °F /  10.2 °C 29.9in /  1013.2hPa Sur 4.7mph /  7.6km/h 7.4mph /  11.9km/h 87% 0in /  0.0mm
00:54 54 °F /  12.2 °C 50.4 °F /  10.2 °C 29.9in /  1013.2hPa SSE 4.4mph /  7.1km/h 7mph /  11.3km/h 87.3% 0in /  0.0mm
00:59 54 °F /  12.2 °C 50.5 °F /  10.3 °C 29.9in /  1013.0hPa Sur 4.3mph /  6.9km/h 8.1mph /  13km/h 88% 0in /  0.0mm
01:04 54 °F /  12.2 °C 50.5 °F /  10.3 °C 29.9in /  1013.0hPa Sur 4.6mph /  7.4km/h 8.1mph /  13km/h 88% 0in /  0.0mm
01:09 54 °F /  12.2 °C 50.5 °F /  10.3 °C 29.9in /  1013.0hPa Sur 4.7mph /  7.6km/h 8.1mph /  13km/h 88% 0in /  0.0mm
01:14 54 °F /  12.2 °C 50.5 °F /  10.3 °C 29.9in /  1012.9hPa SSO 3.9mph /  6.3km/h 8mph /  12.9km/h 88% 0in /  0.0mm
01:19 54 °F /  12.2 °C 50.5 °F /  10.3 °C 29.9in /  1012.9hPa SSO 3.6mph /  5.8km/h 6.2mph /  10km/h 88% 0in /  0.0mm
01:24 54 °F /  12.2 °C 50.5 °F /  10.3 °C 29.9in /  1012.9hPa SSO 3.6mph /  5.8km/h 6mph /  9.7km/h 88% 0in /  0.0mm
01:29 54 °F /  12.2 °C 50.5 °F /  10.3 °C 29.9in /  1012.8hPa SSO 3.6mph /  5.8km/h 8.1mph /  13km/h 88% 0in /  0.0mm
01:34 54 °F /  12.2 °C 50.5 °F /  10.3 °C 29.9in /  1012.8hPa SSO 3.9mph /  6.2km/h 8mph /  12.9km/h 88% 0in /  0.0mm
01:39 54 °F /  12.2 °C 50.4 °F /  10.2 °C 29.9in /  1012.8hPa SSO 4mph /  6.5km/h 6mph /  9.7km/h 87.7% 0in /  0.0mm
01:44 54 °F /  12.2 °C 50.2 °F /  10.1 °C 29.9in /  1012.7hPa SO 3.4mph /  5.4km/h 6.9mph /  11.1km/h 87% 0in /  0.0mm
01:49 54.1 °F /  12.3 °C 50.4 °F /  10.2 °C 29.9in /  1012.7hPa SSO 3.1mph /  5km/h 7mph /  11.3km/h 87% 0in /  0.0mm
01:54 54.1 °F /  12.3 °C 50.4 °F /  10.2 °C 29.9in /  1012.7hPa SO 4mph /  6.4km/h 7.4mph /  11.9km/h 87% 0in /  0.0mm
01:59 54.3 °F /  12.4 °C 50.5 °F /  10.3 °C 29.9in /  1012.5hPa SO 4.3mph /  6.9km/h 8.1mph /  13km/h 87% 0in /  0.0mm
02:04 54.3 °F /  12.4 °C 50.7 °F /  10.4 °C 29.9in /  1012.5hPa SSO 4.3mph /  6.9km/h 8.1mph /  13km/h 87.5% 0in /  0.0mm
02:09 54.3 °F /  12.4 °C 50.5 °F /  10.3 °C 29.9in /  1012.5hPa Sur 4.3mph /  6.9km/h 6mph /  9.7km/h 87% 0in /  0.0mm
02:14 54.3 °F /  12.4 °C 50.5 °F /  10.3 °C 29.9in /  1012.3hPa SO 3.4mph /  5.4km/h 6mph /  9.7km/h 87% 0in /  0.0mm
02:19 54.1 °F /  12.3 °C 50.5 °F /  10.3 °C 29.9in /  1012.3hPa SO 2.9mph /  4.7km/h 5mph /  8km/h 87% 0in /  0.0mm
02:24 54.1 °F /  12.3 °C 50.4 °F /  10.2 °C 29.9in /  1012.3hPa SSO 2.2mph /  3.6km/h 5mph /  8km/h 87% 0in /  0.0mm
02:29 54 °F /  12.2 °C 50.2 °F /  10.1 °C 29.9in /  1012.2hPa SSO 2mph /  3.2km/h 3.6mph /  5.8km/h 87% 0in /  0.0mm
02:34 54 °F /  12.2 °C 50 °F /  10 °C 29.9in /  1012.2hPa OSO 1.9mph /  3km/h 4mph /  6.4km/h 87% 0in /  0.0mm
02:39 53.6 °F /  12 °C 50.2 °F /  10.1 °C 29.9in /  1012.2hPa OSO 1.8mph /  2.9km/h 4.6mph /  7.4km/h 87.9% 0in /  0.0mm
02:44 53.4 °F /  11.9 °C 50 °F /  10 °C 29.9in /  1012.2hPa SO 1.9mph /  3.1km/h 5mph /  8km/h 88% 0in /  0.0mm
02:49 53.2 °F /  11.8 °C 49.8 °F /  9.9 °C 29.9in /  1012.2hPa OSO 2mph /  3.2km/h 4.6mph /  7.4km/h 88% 0in /  0.0mm
02:54 53.1 °F /  11.7 °C 49.6 °F /  9.8 °C 29.9in /  1012.2hPa Oeste 2mph /  3.2km/h 5mph /  8km/h 88% 0in /  0.0mm
02:59 52.9 °F /  11.6 °C 49.3 °F /  9.6 °C 29.9in /  1012.2hPa NNO 2mph /  3.2km/h 5mph /  8km/h 88% 0in /  0.0mm
03:04 52.3 °F /  11.3 °C 49.1 °F /  9.5 °C 29.9in /  1012.2hPa NO 2.3mph /  3.7km/h 5mph /  8km/h 88.3% 0in /  0.0mm
03:09 52.3 °F /  11.3 °C 49.1 °F /  9.5 °C 29.9in /  1012.2hPa NO 2.4mph /  3.9km/h 4mph /  6.4km/h 89% 0in /  0.0mm
03:14 52.2 °F /  11.2 °C 48.9 °F /  9.4 °C 29.9in /  1012.0hPa NO 1.7mph /  2.7km/h 2.4mph /  3.9km/h 89% 0in /  0.0mm
03:19 52 °F /  11.1 °C 48.7 °F /  9.3 °C 29.9in /  1012.0hPa NNO 1.4mph /  2.2km/h 8.1mph /  13km/h 88.6% 0in /  0.0mm
03:24 51.3 °F /  10.7 °C 48 °F /  8.9 °C 29.9in /  1012.0hPa SE 2.6mph /  4.2km/h 9.2mph /  14.8km/h 88.5% 0in /  0.0mm
03:29 50.7 °F /  10.4 °C 47.8 °F /  8.8 °C 29.9in /  1012.0hPa SSE 3.1mph /  5km/h 9.2mph /  14.8km/h 89.6% 0in /  0.0mm
03:34 50.5 °F /  10.3 °C 47.8 °F /  8.8 °C 29.9in /  1012.0hPa SSE 4.7mph /  7.6km/h 9mph /  14.5km/h 90.3% 0in /  0.0mm
03:39 50.5 °F /  10.3 °C 48 °F /  8.9 °C 29.9in /  1012.0hPa SSE 5.4mph /  8.7km/h 7mph /  11.3km/h 91% 0in /  0.0mm
03:44 50.5 °F /  10.3 °C 48 °F /  8.9 °C 29.9in /  1011.9hPa SSE 4.6mph /  7.4km/h 8.1mph /  13km/h 91% 0in /  0.0mm
03:49 50.5 °F /  10.3 °C 48 °F /  8.9 °C 29.9in /  1011.9hPa SSE 4.3mph /  6.9km/h 8.5mph /  13.7km/h 91% 0in /  0.0mm
03:54 50.5 °F /  10.3 °C 48 °F /  8.9 °C 29.9in /  1011.9hPa SSE 5.1mph /  8.2km/h 9mph /  14.5km/h 91% 0in /  0.0mm
03:59 50.5 °F /  10.3 °C 48 °F /  8.9 °C 29.9in /  1011.7hPa SSE 5.4mph /  8.7km/h 8.1mph /  13km/h 91% 0in /  0.0mm
04:04 50.5 °F /  10.3 °C 48 °F /  8.9 °C 29.9in /  1011.7hPa SSO 4.6mph /  7.4km/h 8.1mph /  13km/h 91% 0in /  0.0mm
04:09 50.7 °F /  10.4 °C 48.2 °F /  9 °C 29.9in /  1011.8hPa SO 4.3mph /  6.9km/h 8mph /  12.9km/h 91% 0in /  0.0mm
04:14 51.1 °F /  10.6 °C 48.6 °F /  9.2 °C 29.9in /  1011.8hPa SO 3.8mph /  6.1km/h 5.8mph /  9.3km/h 91% 0in /  0.0mm
04:19 51.4 °F /  10.8 °C 48.7 °F /  9.3 °C 29.9in /  1011.8hPa Oeste 3.6mph /  5.8km/h 6mph /  9.7km/h 90.8% 0in /  0.0mm
04:24 51.4 °F /  10.8 °C 48.6 °F /  9.2 °C 29.9in /  1011.8hPa ONO 3.6mph /  5.8km/h 6mph /  9.7km/h 90% 0in /  0.0mm
04:29 51.3 °F /  10.7 °C 48.6 °F /  9.2 °C 29.9in /  1011.7hPa Oeste 3.6mph /  5.8km/h 5mph /  8km/h 90% 0in /  0.0mm
04:34 51.3 °F /  10.7 °C 48.2 °F /  9 °C 29.9in /  1011.7hPa Oeste 2.7mph /  4.4km/h 5mph /  8km/h 89.4% 0in /  0.0mm
04:39 51.3 °F /  10.7 °C 48.2 °F /  9 °C 29.9in /  1011.7hPa Oeste 2.4mph /  3.9km/h 4.7mph /  7.6km/h 89.5% 0in /  0.0mm
04:44 51.1 °F /  10.6 °C 48 °F /  8.9 °C 29.9in /  1011.6hPa Oeste 2.7mph /  4.4km/h 6.4mph /  10.3km/h 89% 0in /  0.0mm
04:49 51.1 °F /  10.6 °C 48.2 °F /  9 °C 29.9in /  1011.6hPa SO 2.9mph /  4.7km/h 7.4mph /  11.9km/h 90% 0in /  0.0mm
04:54 51.3 °F /  10.7 °C 48.4 °F /  9.1 °C 29.9in /  1011.6hPa SSO 4.2mph /  6.7km/h 7mph /  11.3km/h 89.9% 0in /  0.0mm
04:59 51.4 °F /  10.8 °C 48.4 °F /  9.1 °C 29.9in /  1011.4hPa SSE 4.7mph /  7.6km/h 6mph /  9.7km/h 89% 0in /  0.0mm
05:04 51.8 °F /  11 °C 48.6 °F /  9.2 °C 29.9in /  1011.4hPa SSE 3.5mph /  5.6km/h 5mph /  8km/h 88.7% 0in /  0.0mm
05:09 51.8 °F /  11 °C 48.4 °F /  9.1 °C 29.9in /  1011.4hPa SSO 3.1mph /  5km/h 4.6mph /  7.4km/h 88% 0in /  0.0mm
05:14 51.6 °F /  10.9 °C 48.2 °F /  9 °C 29.9in /  1011.3hPa Sur 2.3mph /  3.7km/h 5mph /  8km/h 88% 0in /  0.0mm
05:19 51.6 °F /  10.9 °C 47.8 °F /  8.8 °C 29.9in /  1011.3hPa SE 2mph /  3.2km/h 5.2mph /  8.4km/h 87% 0in /  0.0mm
05:24 51.1 °F /  10.6 °C 47.1 °F /  8.4 °C 29.9in /  1011.3hPa SE 2.3mph /  3.7km/h 6.2mph /  10km/h 86.2% 0in /  0.0mm
05:29 50.2 °F /  10.1 °C 46.2 °F /  7.9 °C 29.9in /  1011.3hPa SSE 2.4mph /  3.9km/h 8.1mph /  13km/h 86.5% 0in /  0.0mm
05:34 49.6 °F /  9.8 °C 46.2 °F /  7.9 °C 29.9in /  1011.3hPa SSE 4mph /  6.5km/h 8mph /  12.9km/h 88% 0in /  0.0mm
05:39 49.5 °F /  9.7 °C 46.4 °F /  8 °C 29.9in /  1011.3hPa SE 4.7mph /  7.6km/h 7mph /  11.3km/h 89% 0in /  0.0mm
05:44 49.5 °F /  9.7 °C 46.6 °F /  8.1 °C 29.9in /  1011.3hPa SE 4.4mph /  7.1km/h 8.1mph /  13km/h 89.8% 0in /  0.0mm
05:49 49.3 °F /  9.6 °C 46.6 °F /  8.1 °C 29.9in /  1011.3hPa SSE 4.3mph /  6.9km/h 8.1mph /  13km/h 90% 0in /  0.0mm
05:54 49.3 °F /  9.6 °C 46.6 °F /  8.1 °C 29.9in /  1011.3hPa SSO 5mph /  8km/h 8mph /  12.9km/h 90% 0in /  0.0mm
05:59 49.5 °F /  9.7 °C 46.6 °F /  8.1 °C 29.9in /  1011.2hPa SSO 5.2mph /  8.4km/h 6mph /  9.7km/h 90% 0in /  0.0mm
06:04 49.6 °F /  9.8 °C 46.9 °F /  8.3 °C 29.9in /  1011.2hPa SO 4mph /  6.5km/h 6.9mph /  11.1km/h 90% 0in /  0.0mm
06:09 50 °F /  10 °C 46.9 °F /  8.3 °C 29.9in /  1011.2hPa OSO 3.6mph /  5.8km/h 7mph /  11.3km/h 89.3% 0in /  0.0mm
06:14 50.2 °F /  10.1 °C 46.9 °F /  8.3 °C 29.9in /  1011.2hPa OSO 3.9mph /  6.3km/h 6mph /  9.7km/h 89% 0in /  0.0mm
06:19 50.4 °F /  10.2 °C 47.1 °F /  8.4 °C 29.9in /  1011.2hPa SO 4mph /  6.5km/h 6mph /  9.7km/h 89% 0in /  0.0mm
06:24 50.5 °F /  10.3 °C 47.3 °F /  8.5 °C 29.9in /  1011.2hPa SO 3.4mph /  5.4km/h 5mph /  8km/h 88.7% 0in /  0.0mm
06:29 50.5 °F /  10.3 °C 47.1 °F /  8.4 °C 29.9in /  1011.1hPa OSO 3.1mph /  5km/h 5mph /  8km/h 88% 0in /  0.0mm
06:34 50.5 °F /  10.3 °C 46.9 °F /  8.3 °C 29.9in /  1011.1hPa OSO 3mph /  4.8km/h 5.8mph /  9.3km/h 87.3% 0in /  0.0mm
06:39 50.5 °F /  10.3 °C 46.8 °F /  8.2 °C 29.9in /  1011.1hPa SO 2.9mph /  4.7km/h 6.9mph /  11.1km/h 87% 0in /  0.0mm
06:44 50.5 °F /  10.3 °C 46.8 °F /  8.2 °C 29.9in /  1011.1hPa OSO 3mph /  4.9km/h 7mph /  11.3km/h 87% 0in /  0.0mm
06:49 50.5 °F /  10.3 °C 46.8 °F /  8.2 °C 29.9in /  1011.1hPa OSO 3.1mph /  5km/h 5mph /  8km/h 87% 0in /  0.0mm
06:54 50.4 °F /  10.2 °C 46.6 °F /  8.1 °C 29.9in /  1011.1hPa OSO 1.9mph /  3.1km/h 2.3mph /  3.7km/h 86.7% 0in /  0.0mm
06:59 50.4 °F /  10.2 °C 46.6 °F /  8.1 °C 29.9in /  1011.1hPa SE 1.4mph /  2.2km/h 4.6mph /  7.4km/h 86.9% 0in /  0.0mm
07:04 50.2 °F /  10.1 °C 46.2 °F /  7.9 °C 29.9in /  1011.1hPa SE 1.7mph /  2.7km/h 5.9mph /  9.5km/h 86% 0in /  0.0mm
07:09 49.8 °F /  9.9 °C 45.7 °F /  7.6 °C 29.9in /  1011.2hPa SE 1.8mph /  2.9km/h 6mph /  9.7km/h 86% 0in /  0.0mm
07:14 49.6 °F /  9.8 °C 45.7 °F /  7.6 °C 29.9in /  1011.2hPa Sur 2.6mph /  4.2km/h 5mph /  8km/h 86.5% 0in /  0.0mm
07:19 49.5 °F /  9.7 °C 45.9 °F /  7.7 °C 29.9in /  1011.2hPa SE 2.9mph /  4.7km/h 5mph /  8km/h 87% 0in /  0.0mm
07:24 49.3 °F /  9.6 °C 45.7 °F /  7.6 °C 29.9in /  1011.2hPa SE 2.5mph /  4.1km/h 5mph /  8km/h 87% 0in /  0.0mm
07:29 49.3 °F /  9.6 °C 45.9 °F /  7.7 °C 29.9in /  1011.1hPa SE 2.4mph /  3.9km/h 4.6mph /  7.4km/h 87.7% 0in /  0.0mm
07:34 49.1 °F /  9.5 °C 45.5 °F /  7.5 °C 29.9in /  1011.1hPa NO 2.1mph /  3.4km/h 5mph /  8km/h 87.1% 0in /  0.0mm
07:39 48.9 °F /  9.4 °C 45.5 °F /  7.5 °C 29.9in /  1011.3hPa NO 2mph /  3.2km/h 3.6mph /  5.8km/h 88% 0in /  0.0mm
07:44 48.7 °F /  9.3 °C 45.3 °F /  7.4 °C 29.9in /  1011.3hPa NO 1.9mph /  3km/h 4mph /  6.4km/h 88% 0in /  0.0mm
07:49 48.7 °F /  9.3 °C 45.3 °F /  7.4 °C 29.9in /  1011.3hPa NO 1.8mph /  2.9km/h 4mph /  6.4km/h 88% 0in /  0.0mm
07:54 48.7 °F /  9.3 °C 45.5 °F /  7.5 °C 29.9in /  1011.6hPa NO 1.8mph /  2.9km/h 2.9mph /  4.7km/h 88.5% 0in /  0.0mm
07:59 48.7 °F /  9.3 °C 45.7 °F /  7.6 °C 29.9in /  1011.6hPa NO 1.8mph /  2.9km/h 5.8mph /  9.3km/h 89% 0in /  0.0mm
08:04 48.7 °F /  9.3 °C 45.3 °F /  7.4 °C 29.9in /  1011.6hPa ESE 1.9mph /  3.1km/h 6mph /  9.7km/h 88% 0in /  0.0mm
08:09 48.6 °F /  9.2 °C 45.1 °F /  7.3 °C 29.9in /  1011.6hPa SE 2mph /  3.2km/h 8.1mph /  13km/h 88% 0in /  0.0mm
08:14 48.4 °F /  9.1 °C 45 °F /  7.2 °C 29.9in /  1011.4hPa SE 3.9mph /  6.3km/h 8.1mph /  13km/h 88% 0in /  0.0mm
08:19 48.4 °F /  9.1 °C 45 °F /  7.2 °C 29.9in /  1011.4hPa SSE 4.7mph /  7.6km/h 8mph /  12.9km/h 88% 0in /  0.0mm
08:24 48.4 °F /  9.1 °C 45 °F /  7.2 °C 29.9in /  1011.4hPa SSE 4.7mph /  7.6km/h 8.1mph /  13km/h 88% 0in /  0.0mm
08:29 48.4 °F /  9.1 °C 45 °F /  7.2 °C 29.9in /  1011.4hPa SO 4.7mph /  7.6km/h 8mph /  12.9km/h 88.2% 0in /  0.0mm
08:34 48.6 °F /  9.2 °C 45.1 °F /  7.3 °C 29.9in /  1011.4hPa SO 4.4mph /  7.1km/h 6mph /  9.7km/h 88.1% 0in /  0.0mm
08:39 48.7 °F /  9.3 °C 45.3 °F /  7.4 °C 29.9in /  1011.6hPa SSO 4.3mph /  6.9km/h 6mph /  9.7km/h 88% 0in /  0.0mm
08:44 49.3 °F /  9.6 °C 45.9 °F /  7.7 °C 29.9in /  1011.6hPa SSO 4.1mph /  6.6km/h 6.9mph /  11.1km/h 88% 0in /  0.0mm
08:49 49.6 °F /  9.8 °C 46 °F /  7.8 °C 29.9in /  1011.6hPa Sur 4mph /  6.5km/h 7mph /  11.3km/h 87.1% 0in /  0.0mm
08:54 50.2 °F /  10.1 °C 46.2 °F /  7.9 °C 29.9in /  1011.6hPa SSE 4.5mph /  7.2km/h 8.1mph /  13km/h 86.3% 0in /  0.0mm
08:59 50.5 °F /  10.3 °C 46.2 °F /  7.9 °C 29.9in /  1011.6hPa SSE 4.7mph /  7.6km/h 8mph /  12.9km/h 85.2% 0in /  0.0mm
09:04 50.5 °F /  10.3 °C 46.2 °F /  7.9 °C 29.9in /  1011.6hPa SSE 5.2mph /  8.4km/h 8.5mph /  13.7km/h 85% 0in /  0.0mm
09:09 50.5 °F /  10.3 °C 46.2 °F /  7.9 °C 29.9in /  1011.6hPa SSE 5.4mph /  8.7km/h 9mph /  14.5km/h 85% 0in /  0.0mm
09:14 50.5 °F /  10.3 °C 46.2 °F /  7.9 °C 29.9in /  1011.6hPa Sur 5.3mph /  8.5km/h 8mph /  12.9km/h 85% 0in /  0.0mm
09:19 50.7 °F /  10.4 °C 46.4 °F /  8 °C 29.9in /  1011.6hPa Sur 5.2mph /  8.4km/h 8.1mph /  13km/h 84.7% 0in /  0.0mm
09:24 51.3 °F /  10.7 °C 46.6 °F /  8.1 °C 29.9in /  1011.6hPa SSO 4.8mph /  7.8km/h 8mph /  12.9km/h 84% 0in /  0.0mm
09:29 51.6 °F /  10.9 °C 46.9 °F /  8.3 °C 29.9in /  1011.6hPa SSO 4.7mph /  7.6km/h 8.5mph /  13.7km/h 83.8% 0in /  0.0mm
09:34 52.2 °F /  11.2 °C 47.1 °F /  8.4 °C 29.9in /  1011.6hPa SSO 5.2mph /  8.4km/h 9mph /  14.5km/h 82.9% 0in /  0.0mm
09:39 52.5 °F /  11.4 °C 47.3 °F /  8.5 °C 29.9in /  1011.7hPa SSO 5.4mph /  8.7km/h 8mph /  12.9km/h 82% 0in /  0.0mm
09:44 53.1 °F /  11.7 °C 47.5 °F /  8.6 °C 29.9in /  1011.7hPa SO 4.9mph /  7.9km/h 7mph /  11.3km/h 81.3% 0in /  0.0mm
09:49 53.2 °F /  11.8 °C 47.3 °F /  8.5 °C 29.9in /  1011.7hPa SO 4.7mph /  7.6km/h 7.4mph /  11.9km/h 80% 0in /  0.0mm
09:54 53.4 °F /  11.9 °C 47.5 °F /  8.6 °C 29.9in /  1011.8hPa SO 4.7mph /  7.6km/h 7mph /  11.3km/h 80% 0in /  0.0mm
09:59 53.6 °F /  12 °C 47.5 °F /  8.6 °C 29.9in /  1011.8hPa SSE 4.7mph /  7.6km/h 7.4mph /  11.9km/h 79.4% 0in /  0.0mm
10:04 54.1 °F /  12.3 °C 47.5 °F /  8.6 °C 29.9in /  1011.8hPa SSO 4.4mph /  7.1km/h 7mph /  11.3km/h 78.3% 0in /  0.0mm
10:09 54.7 °F /  12.6 °C 47.8 °F /  8.8 °C 29.9in /  1011.8hPa SSO 4.3mph /  6.9km/h 6.9mph /  11.1km/h 77.6% 0in /  0.0mm
10:14 55 °F /  12.8 °C 48 °F /  8.9 °C 29.9in /  1011.8hPa Oeste 3.8mph /  6.1km/h 7mph /  11.3km/h 77% 0in /  0.0mm
10:19 55.4 °F /  13 °C 48 °F /  8.9 °C 29.9in /  1011.8hPa Oeste 3.6mph /  5.8km/h 3.5mph /  5.6km/h 76.4% 0in /  0.0mm
10:24 55.8 °F /  13.2 °C 48 °F /  8.9 °C 29.9in /  1011.8hPa SSO 2.4mph /  3.9km/h 4.6mph /  7.4km/h 75.2% 0in /  0.0mm
10:29 55.8 °F /  13.2 °C 47.7 °F /  8.7 °C 29.9in /  1011.7hPa Sur 2mph /  3.2km/h 5.8mph /  9.3km/h 74.2% 0in /  0.0mm
10:34 55.9 °F /  13.3 °C 47.8 °F /  8.8 °C 29.9in /  1011.7hPa SSO 2.8mph /  4.5km/h 6mph /  9.7km/h 74.1% 0in /  0.0mm
10:39 56.1 °F /  13.4 °C 48 °F /  8.9 °C 29.9in /  1011.8hPa Sur 3.1mph /  5km/h 6mph /  9.7km/h 73.9% 0in /  0.0mm
10:44 56.7 °F /  13.7 °C 47.8 °F /  8.8 °C 29.9in /  1011.8hPa Oeste 3mph /  4.8km/h 5.2mph /  8.4km/h 72.2% 0in /  0.0mm
10:49 56.7 °F /  13.7 °C 48.2 °F /  9 °C 29.9in /  1011.8hPa Oeste 2.9mph /  4.7km/h 5.8mph /  9.3km/h 73% 0in /  0.0mm
10:54 56.8 °F /  13.8 °C 48.4 °F /  9.1 °C 29.9in /  1011.8hPa Oeste 3mph /  4.9km/h 6mph /  9.7km/h 73% 0in /  0.0mm
10:59 57 °F /  13.9 °C 48.2 °F /  9 °C 29.9in /  1011.8hPa SO 3.1mph /  5km/h 5.2mph /  8.4km/h 72.4% 0in /  0.0mm
11:04 57.4 °F /  14.1 °C 48.4 °F /  9.1 °C 29.9in /  1011.8hPa SO 3.1mph /  5km/h 5mph /  8km/h 72% 0in /  0.0mm
11:09 57.7 °F /  14.3 °C 48.6 °F /  9.2 °C 29.9in /  1011.8hPa SSO 3.1mph /  5km/h 5mph /  8km/h 71.4% 0in /  0.0mm
11:14 58.5 °F /  14.7 °C 48.7 °F /  9.3 °C 29.9in /  1011.8hPa Sur 3mph /  4.8km/h 5mph /  8km/h 70.2% 0in /  0.0mm
11:19 59 °F /  15 °C 48.7 °F /  9.3 °C 29.9in /  1011.8hPa Sur 2.9mph /  4.7km/h 5mph /  8km/h 68.8% 0in /  0.0mm
11:24 59.5 °F /  15.3 °C 48.9 °F /  9.4 °C 29.9in /  1011.8hPa SSO 2.9mph /  4.7km/h 5mph /  8km/h 67.6% 0in /  0.0mm
11:29 60.3 °F /  15.7 °C 48.6 °F /  9.2 °C 29.9in /  1011.6hPa SO 2.9mph /  4.7km/h 5.8mph /  9.3km/h 65.4% 0in /  0.0mm
11:34 60.4 °F /  15.8 °C 48.4 °F /  9.1 °C 29.9in /  1011.6hPa SSO 3mph /  4.9km/h 6mph /  9.7km/h 64.1% 0in /  0.0mm
11:39 61.2 °F /  16.2 °C 48.4 °F /  9.1 °C 29.9in /  1011.6hPa SO 3.1mph /  5km/h 6.9mph /  11.1km/h 63% 0in /  0.0mm
11:44 61.3 °F /  16.3 °C 48.4 °F /  9.1 °C 29.9in /  1011.6hPa SO 3.5mph /  5.6km/h 9.2mph /  14.8km/h 62.4% 0in /  0.0mm
11:49 61.5 °F /  16.4 °C 48.4 °F /  9.1 °C 29.9in /  1011.6hPa SSO 3.6mph /  5.8km/h 9mph /  14.5km/h 62% 0in /  0.0mm
11:54 61.5 °F /  16.4 °C 48.4 °F /  9.1 °C 29.9in /  1011.6hPa Sur 4.3mph /  7km/h 9.2mph /  14.8km/h 62% 0in /  0.0mm
11:59 61.9 °F /  16.6 °C 48.7 °F /  9.3 °C 29.9in /  1011.5hPa SO 4.7mph /  7.6km/h 9mph /  14.5km/h 62% 0in /  0.0mm
12:04 62.1 °F /  16.7 °C 48.9 °F /  9.4 °C 29.9in /  1011.5hPa SSO 4.7mph /  7.6km/h 8.1mph /  13km/h 62% 0in /  0.0mm
12:09 62.4 °F /  16.9 °C 48.9 °F /  9.4 °C 29.9in /  1011.5hPa SSE 4.7mph /  7.6km/h 8.1mph /  13km/h 61.1% 0in /  0.0mm
12:14 63 °F /  17.2 °C 49.1 °F /  9.5 °C 29.9in /  1011.2hPa SSO 4.7mph /  7.6km/h 8.1mph /  13km/h 60.8% 0in /  0.0mm
12:19 63 °F /  17.2 °C 48.9 °F /  9.4 °C 29.9in /  1011.2hPa Oeste 4.7mph /  7.6km/h 8.5mph /  13.7km/h 60% 0in /  0.0mm
12:24 63.1 °F /  17.3 °C 48.9 °F /  9.4 °C 29.9in /  1011.2hPa OSO 4.7mph /  7.6km/h 9mph /  14.5km/h 60% 0in /  0.0mm
12:29 63.3 °F /  17.4 °C 48.9 °F /  9.4 °C 29.9in /  1010.9hPa SO 4.7mph /  7.6km/h 6.9mph /  11.1km/h 59.3% 0in /  0.0mm
12:34 63.7 °F /  17.6 °C 48.9 °F /  9.4 °C 29.9in /  1010.9hPa SO 3.5mph /  5.7km/h 7mph /  11.3km/h 58.5% 0in /  0.0mm
12:39 64 °F /  17.8 °C 48.9 °F /  9.4 °C 29.9in /  1010.9hPa Oeste 3.1mph /  5km/h 6mph /  9.7km/h 58% 0in /  0.0mm
12:44 64.6 °F /  18.1 °C 48.9 °F /  9.4 °C 29.8in /  1010.5hPa ONO 2.2mph /  3.5km/h 6.9mph /  11.1km/h 56.7% 0in /  0.0mm
12:49 64.8 °F /  18.2 °C 48.7 °F /  9.3 °C 29.8in /  1010.5hPa North 1.8mph /  2.9km/h 10.2mph /  16.4km/h 56% 0in /  0.0mm
12:54 65.1 °F /  18.4 °C 48.6 °F /  9.2 °C 29.8in /  1010.5hPa ONO 3.6mph /  5.8km/h 11.2mph /  18km/h 55% 0in /  0.0mm
12:59 65.3 °F /  18.5 °C 48.4 °F /  9.1 °C 29.8in /  1010.2hPa ONO 4.3mph /  6.9km/h 11mph /  17.7km/h 54.4% 0in /  0.0mm
13:04 65.1 °F /  18.4 °C 48.2 °F /  9 °C 29.8in /  1010.2hPa NO 5.1mph /  8.2km/h 9.7mph /  15.6km/h 54% 0in /  0.0mm
13:09 65.3 °F /  18.5 °C 48.2 °F /  9 °C 29.8in /  1010.2hPa ONO 5.4mph /  8.7km/h 11.8mph /  19km/h 54% 0in /  0.0mm
13:14 65.3 °F /  18.5 °C 48.2 °F /  9 °C 29.8in /  1010.0hPa Oeste 5.3mph /  8.5km/h 12mph /  19.3km/h 54% 0in /  0.0mm
13:19 65.7 °F /  18.7 °C 48.4 °F /  9.1 °C 29.8in /  1010.0hPa NO 5.2mph /  8.4km/h 10.4mph /  16.7km/h 53.7% 0in /  0.0mm
13:24 65.8 °F /  18.8 °C 48.2 °F /  9 °C 29.8in /  1010.0hPa NO 4.5mph /  7.3km/h 10.4mph /  16.7km/h 53.3% 0in /  0.0mm
13:29 65.8 °F /  18.8 °C 48 °F /  8.9 °C 29.8in /  1009.8hPa ONO 4.3mph /  6.9km/h 10.4mph /  16.7km/h 52.7% 0in /  0.0mm
13:34 65.8 °F /  18.8 °C 48.2 °F /  9 °C 29.8in /  1009.8hPa NO 4.3mph /  6.9km/h 9mph /  14.5km/h 53% 0in /  0.0mm
13:39 66 °F /  18.9 °C 48 °F /  8.9 °C 29.8in /  1009.8hPa NNO 4.3mph /  6.9km/h 8.1mph /  13km/h 52.3% 0in /  0.0mm
13:44 66.2 °F /  19 °C 48 °F /  8.9 °C 29.8in /  1009.6hPa Oeste 3.4mph /  5.5km/h 10.2mph /  16.4km/h 51.9% 0in /  0.0mm
13:49 66 °F /  18.9 °C 47.7 °F /  8.7 °C 29.8in /  1009.6hPa Oeste 3.1mph /  5km/h 10.7mph /  17.2km/h 51.4% 0in /  0.0mm
13:54 66.2 °F /  19 °C 47.8 °F /  8.8 °C 29.8in /  1009.6hPa NO 4.6mph /  7.4km/h 11mph /  17.7km/h 51.7% 0in /  0.0mm
13:59 66.4 °F /  19.1 °C 47.7 °F /  8.7 °C 29.8in /  1009.4hPa NNO 5.2mph /  8.4km/h 9.2mph /  14.8km/h 51% 0in /  0.0mm
14:04 66.4 °F /  19.1 °C 47.7 °F /  8.7 °C 29.8in /  1009.4hPa NNO 4.5mph /  7.3km/h 9mph /  14.5km/h 51% 0in /  0.0mm
14:09 66.7 °F /  19.3 °C 47.7 °F /  8.7 °C 29.8in /  1009.4hPa NO 4.3mph /  6.9km/h 6.9mph /  11.1km/h 50.5% 0in /  0.0mm
14:14 66.7 °F /  19.3 °C 47.5 °F /  8.6 °C 29.8in /  1009.3hPa NNO 3.3mph /  5.3km/h 8.1mph /  13km/h 50% 0in /  0.0mm
14:19 66.7 °F /  19.3 °C 47.5 °F /  8.6 °C 29.8in /  1009.3hPa NO 2.9mph /  4.7km/h 9.7mph /  15.6km/h 49.9% 0in /  0.0mm
14:24 66.7 °F /  19.3 °C 47.5 °F /  8.6 °C 29.8in /  1009.3hPa ENE 3.9mph /  6.3km/h 10mph /  16.1km/h 50% 0in /  0.0mm
14:29 66.9 °F /  19.4 °C 47.5 °F /  8.6 °C 29.8in /  1008.9hPa NE 4.3mph /  6.9km/h 5.4mph /  8.7km/h 49.5% 0in /  0.0mm
14:34 66.9 °F /  19.4 °C 47.3 °F /  8.5 °C 29.8in /  1008.9hPa North 3.3mph /  5.3km/h 9.7mph /  15.6km/h 49.4% 0in /  0.0mm
14:39 66.9 °F /  19.4 °C 47.1 °F /  8.4 °C 29.8in /  1008.9hPa NO 2.9mph /  4.7km/h 10mph /  16.1km/h 49% 0in /  0.0mm
14:44 67.1 °F /  19.5 °C 47.3 °F /  8.5 °C 29.8in /  1008.7hPa Oeste 2.9mph /  4.7km/h 9.2mph /  14.8km/h 49% 0in /  0.0mm
14:49 67.1 °F /  19.5 °C 47.3 °F /  8.5 °C 29.8in /  1008.7hPa ONO 2.9mph /  4.7km/h 9mph /  14.5km/h 48.8% 0in /  0.0mm
14:54 67.3 °F /  19.6 °C 46.9 °F /  8.3 °C 29.8in /  1008.7hPa NO 3.7mph /  5.9km/h 8mph /  12.9km/h 48% 0in /  0.0mm
14:59 67.5 °F /  19.7 °C 47.1 °F /  8.4 °C 29.8in /  1008.6hPa SO 4mph /  6.5km/h 5.9mph /  9.5km/h 48% 0in /  0.0mm
15:04 67.6 °F /  19.8 °C 47.1 °F /  8.4 °C 29.8in /  1008.6hPa OSO 3.2mph /  5.1km/h 6mph /  9.7km/h 48% 0in /  0.0mm
15:09 67.8 °F /  19.9 °C 47.3 °F /  8.5 °C 29.8in /  1008.6hPa NE 2.9mph /  4.7km/h 5.9mph /  9.5km/h 47.6% 0in /  0.0mm
15:14 67.8 °F /  19.9 °C 47.7 °F /  8.7 °C 29.8in /  1008.5hPa North 2.5mph /  4.1km/h 6.2mph /  10km/h 48.4% 0in /  0.0mm
15:19 67.8 °F /  19.9 °C 47.8 °F /  8.8 °C 29.8in /  1008.5hPa NE 2.4mph /  3.9km/h 6.9mph /  11.1km/h 48.7% 0in /  0.0mm
15:24 67.6 °F /  19.8 °C 47.3 °F /  8.5 °C 29.8in /  1008.5hPa ENE 3.2mph /  5.2km/h 7mph /  11.3km/h 48% 0in /  0.0mm
15:29 67.6 °F /  19.8 °C 47.3 °F /  8.5 °C 29.8in /  1008.4hPa SSE 3.6mph /  5.8km/h 6mph /  9.7km/h 48% 0in /  0.0mm
15:34 68 °F /  20 °C 47.5 °F /  8.6 °C 29.8in /  1008.4hPa SSE 2.4mph /  3.9km/h 4.7mph /  7.6km/h 47.8% 0in /  0.0mm
15:39 68 °F /  20 °C 47.5 °F /  8.6 °C 29.8in /  1008.4hPa NE 2mph /  3.2km/h 5.2mph /  8.4km/h 47.7% 0in /  0.0mm
15:44 67.8 °F /  19.9 °C 47.5 °F /  8.6 °C 29.8in /  1008.4hPa NNO 2.8mph /  4.5km/h 5.2mph /  8.4km/h 48% 0in /  0.0mm
15:49 67.8 °F /  19.9 °C 47.5 °F /  8.6 °C 29.8in /  1008.4hPa NNE 3.1mph /  5km/h 5.2mph /  8.4km/h 48% 0in /  0.0mm
15:54 67.8 °F /  19.9 °C 47.8 °F /  8.8 °C 29.8in /  1008.4hPa Este 2.6mph /  4.2km/h 5.4mph /  8.7km/h 48.7% 0in /  0.0mm
15:59 67.8 °F /  19.9 °C 48.2 °F /  9 °C 29.8in /  1008.4hPa Este 2.4mph /  3.9km/h 8.5mph /  13.7km/h 49.4% 0in /  0.0mm
16:04 67.8 °F /  19.9 °C 48.2 °F /  9 °C 29.8in /  1008.4hPa Este 3.3mph /  5.3km/h 9.2mph /  14.8km/h 49.5% 0in /  0.0mm
16:09 67.5 °F /  19.7 °C 48.2 °F /  9 °C 29.8in /  1008.4hPa Este 3.6mph /  5.8km/h 9mph /  14.5km/h 49.9% 0in /  0.0mm
16:14 67.3 °F /  19.6 °C 48 °F /  8.9 °C 29.8in /  1008.3hPa ENE 4.8mph /  7.7km/h 8mph /  12.9km/h 50% 0in /  0.0mm
16:19 67.3 °F /  19.6 °C 47.8 °F /  8.8 °C 29.8in /  1008.3hPa ENE 5.2mph /  8.4km/h 6.2mph /  10km/h 49.8% 0in /  0.0mm
16:24 67.3 °F /  19.6 °C 47.7 °F /  8.7 °C 29.8in /  1008.3hPa Este 3.7mph /  6km/h 6mph /  9.7km/h 49.3% 0in /  0.0mm
16:29 67.5 °F /  19.7 °C 47.8 °F /  8.8 °C 29.8in /  1008.2hPa ENE 3.1mph /  5km/h 5.2mph /  8.4km/h 49.5% 0in /  0.0mm
16:34 67.5 °F /  19.7 °C 47.8 °F /  8.8 °C 29.8in /  1008.2hPa ENE 2.3mph /  3.7km/h 5mph /  8km/h 49.5% 0in /  0.0mm
16:39 67.3 °F /  19.6 °C 48 °F /  8.9 °C 29.8in /  1008.2hPa NE 2mph /  3.2km/h 5.2mph /  8.4km/h 50% 0in /  0.0mm
16:44 67.1 °F /  19.5 °C 47.8 °F /  8.8 °C 29.8in /  1008.1hPa NNE 2.7mph /  4.3km/h 5.8mph /  9.3km/h 50% 0in /  0.0mm
16:49 66.9 °F /  19.4 °C 47.7 °F /  8.7 °C 29.8in /  1008.1hPa NNE 2.9mph /  4.7km/h 6mph /  9.7km/h 50% 0in /  0.0mm
16:54 66.7 °F /  19.3 °C 47.7 °F /  8.7 °C 29.8in /  1008.1hPa NE 3mph /  4.8km/h 5.2mph /  8.4km/h 50% 0in /  0.0mm
16:59 66.7 °F /  19.3 °C 47.7 °F /  8.7 °C 29.8in /  1008.1hPa NE 3.1mph /  5km/h 5mph /  8km/h 50.4% 0in /  0.0mm
17:04 66.7 °F /  19.3 °C 48 °F /  8.9 °C 29.8in /  1008.1hPa NE 3.1mph /  5km/h 7.4mph /  11.9km/h 51.1% 0in /  0.0mm
17:09 66.6 °F /  19.2 °C 48.4 °F /  9.1 °C 29.8in /  1008.2hPa Este 3.1mph /  5km/h 7mph /  11.3km/h 52.1% 0in /  0.0mm
17:14 66.6 °F /  19.2 °C 49.3 °F /  9.6 °C 29.8in /  1008.2hPa SE 3.5mph /  5.6km/h 7mph /  11.3km/h 53.8% 0in /  0.0mm
17:19 66.2 °F /  19 °C 49.6 °F /  9.8 °C 29.8in /  1008.2hPa SE 3.6mph /  5.8km/h 7mph /  11.3km/h 55.3% 0in /  0.0mm
17:24 65.8 °F /  18.8 °C 50.4 °F /  10.2 °C 29.8in /  1008.3hPa ESE 3.2mph /  5.2km/h 7.4mph /  11.9km/h 57.2% 0in /  0.0mm
17:29 65.3 °F /  18.5 °C 50.5 °F /  10.3 °C 29.8in /  1008.3hPa ESE 3.1mph /  5km/h 7mph /  11.3km/h 58.7% 0in /  0.0mm
17:34 64.9 °F /  18.3 °C 50.5 °F /  10.3 °C 29.8in /  1008.3hPa ESE 3.7mph /  6km/h 6.2mph /  10km/h 59.8% 0in /  0.0mm
17:39 64.8 °F /  18.2 °C 50.7 °F /  10.4 °C 29.8in /  1008.3hPa ESE 4mph /  6.5km/h 6mph /  9.7km/h 60.7% 0in /  0.0mm
17:44 64.4 °F /  18 °C 50.7 °F /  10.4 °C 29.8in /  1008.3hPa Este 3.7mph /  6km/h 7.4mph /  11.9km/h 61.1% 0in /  0.0mm
17:49 64 °F /  17.8 °C 50.7 °F /  10.4 °C 29.8in /  1008.3hPa ENE 3.6mph /  5.8km/h 7mph /  11.3km/h 62% 0in /  0.0mm
17:54 63.7 °F /  17.6 °C 50.7 °F /  10.4 °C 29.8in /  1008.3hPa Este 3.9mph /  6.2km/h 7mph /  11.3km/h 62.9% 0in /  0.0mm
17:59 63.5 °F /  17.5 °C 50.7 °F /  10.4 °C 29.8in /  1008.3hPa ESE 4mph /  6.5km/h 6.9mph /  11.1km/h 63% 0in /  0.0mm
18:04 63.3 °F /  17.4 °C 50.5 °F /  10.3 °C 29.8in /  1008.3hPa ESE 4mph /  6.5km/h 9.2mph /  14.8km/h 63% 0in /  0.0mm
18:09 63 °F /  17.2 °C 50.4 °F /  10.2 °C 29.8in /  1008.3hPa ESE 4mph /  6.5km/h 11.4mph /  18.3km/h 63.6% 0in /  0.0mm
18:14 62.6 °F /  17 °C 50.4 °F /  10.2 °C 29.8in /  1008.2hPa ESE 5.8mph /  9.3km/h 12mph /  19.3km/h 64.3% 0in /  0.0mm
18:19 62.2 °F /  16.8 °C 50.2 °F /  10.1 °C 29.8in /  1008.2hPa ESE 6.4mph /  10.3km/h 9.2mph /  14.8km/h 65% 0in /  0.0mm
18:24 62.1 °F /  16.7 °C 50.2 °F /  10.1 °C 29.8in /  1008.2hPa ESE 6mph /  9.7km/h 8mph /  12.9km/h 65% 0in /  0.0mm
18:29 61.9 °F /  16.6 °C 50 °F /  10 °C 29.8in /  1008.0hPa ESE 4.7mph /  7.6km/h 7mph /  11.3km/h 65% 0in /  0.0mm
18:34 61.5 °F /  16.4 °C 49.8 °F /  9.9 °C 29.8in /  1008.0hPa ENE 4.7mph /  7.6km/h 7mph /  11.3km/h 65.2% 0in /  0.0mm
18:39 61.3 °F /  16.3 °C 50 °F /  10 °C 29.8in /  1008.2hPa NNE 4.7mph /  7.6km/h 9.2mph /  14.8km/h 66.4% 0in /  0.0mm
18:44 61 °F /  16.1 °C 50 °F /  10 °C 29.8in /  1008.2hPa NNE 5.2mph /  8.4km/h 10.4mph /  16.7km/h 67.4% 0in /  0.0mm
18:49 60.8 °F /  16 °C 50.4 °F /  10.2 °C 29.8in /  1008.2hPa NNE 5.4mph /  8.7km/h 10.2mph /  16.4km/h 68.4% 0in /  0.0mm
18:54 60.3 °F /  15.7 °C 51.1 °F /  10.6 °C 29.8in /  1008.4hPa NNE 5.4mph /  8.7km/h 12.7mph /  20.4km/h 71.6% 0in /  0.0mm
18:59 59.5 °F /  15.3 °C 51.8 °F /  11 °C 29.8in /  1008.4hPa NNE 5.4mph /  8.7km/h 13mph /  20.9km/h 75.6% 0in /  0.0mm
19:04 59 °F /  15 °C 52.3 °F /  11.3 °C 29.8in /  1008.4hPa NE 7.1mph /  11.4km/h 13mph /  20.9km/h 78.8% 0in /  0.0mm
19:09 58.6 °F /  14.8 °C 52.7 °F /  11.5 °C 29.8in /  1008.6hPa NE 7.6mph /  12.2km/h 16.1mph /  25.9km/h 80.9% 0in /  0.0mm
19:14 58.3 °F /  14.6 °C 53.1 °F /  11.7 °C 29.8in /  1008.6hPa NE 8mph /  12.8km/h 16mph /  25.7km/h 82.5% 0in /  0.0mm
19:19 58.1 °F /  14.5 °C 53.1 °F /  11.7 °C 29.8in /  1008.6hPa NE 8.1mph /  13km/h 15.2mph /  24.5km/h 83.6% 0in /  0.0mm
19:24 57.9 °F /  14.4 °C 53.2 °F /  11.8 °C 29.8in /  1008.6hPa NE 8.4mph /  13.5km/h 16.1mph /  25.9km/h 84.5% 0in /  0.0mm
19:29 57.7 °F /  14.3 °C 53.2 °F /  11.8 °C 29.8in /  1008.6hPa NE 8.5mph /  13.7km/h 16.3mph /  26.2km/h 85% 0in /  0.0mm
19:34 57.6 °F /  14.2 °C 53.4 °F /  11.9 °C 29.8in /  1008.6hPa NE 9.6mph /  15.4km/h 16mph /  25.7km/h 85.9% 0in /  0.0mm
19:39 57.4 °F /  14.1 °C 53.2 °F /  11.8 °C 29.8in /  1008.8hPa NE 10mph /  16.1km/h 13mph /  20.9km/h 86% 0in /  0.0mm
19:44 57 °F /  13.9 °C 52.9 °F /  11.6 °C 29.8in /  1008.8hPa NE 7.8mph /  12.6km/h 12mph /  19.3km/h 86% 0in /  0.0mm
19:49 56.8 °F /  13.8 °C 52.9 °F /  11.6 °C 29.8in /  1008.8hPa NE 6.9mph /  11.1km/h 11mph /  17.7km/h 86.5% 0in /  0.0mm
19:54 56.8 °F /  13.8 °C 53.1 °F /  11.7 °C 29.8in /  1009.1hPa NNE 6.5mph /  10.5km/h 10mph /  16.1km/h 87% 0in /  0.0mm
19:59 56.7 °F /  13.7 °C 52.9 °F /  11.6 °C 29.8in /  1009.1hPa NE 6.4mph /  10.3km/h 10.4mph /  16.7km/h 87% 0in /  0.0mm
20:04 56.7 °F /  13.7 °C 52.9 °F /  11.6 °C 29.8in /  1009.1hPa NE 6.3mph /  10.1km/h 10mph /  16.1km/h 87.6% 0in /  0.0mm
20:09 56.5 °F /  13.6 °C 53.1 °F /  11.7 °C 29.8in /  1009.2hPa NE 6.2mph /  10km/h 10mph /  16.1km/h 88% 0in /  0.0mm
20:14 56.5 °F /  13.6 °C 53.1 °F /  11.7 °C 29.8in /  1009.2hPa NE 6.2mph /  10km/h 10.4mph /  16.7km/h 88% 0in /  0.0mm
20:19 56.5 °F /  13.6 °C 53.1 °F /  11.7 °C 29.8in /  1009.2hPa NE 6.2mph /  10km/h 10.4mph /  16.7km/h 88% 0in /  0.0mm
20:24 56.5 °F /  13.6 °C 53.1 °F /  11.7 °C 29.8in /  1009.2hPa NNE 6.2mph /  10km/h 10mph /  16.1km/h 88% 0in /  0.0mm
20:29 56.5 °F /  13.6 °C 53.1 °F /  11.7 °C 29.8in /  1009.2hPa NNE 6.2mph /  10km/h 10mph /  16.1km/h 88% 0in /  0.0mm
20:34 56.5 °F /  13.6 °C 53.1 °F /  11.7 °C 29.8in /  1009.2hPa NNE 5.6mph /  9km/h 10mph /  16.1km/h 88% 0in /  0.0mm
20:39 56.5 °F /  13.6 °C 53.2 °F /  11.8 °C 29.8in /  1009.4hPa NE 5.4mph /  8.7km/h 10.7mph /  17.2km/h 88.6% 0in /  0.0mm
20:44 56.5 °F /  13.6 °C 53.2 °F /  11.8 °C 29.8in /  1009.4hPa NE 6.1mph /  9.8km/h 11mph /  17.7km/h 89% 0in /  0.0mm
20:49 56.7 °F /  13.7 °C 53.4 °F /  11.9 °C 29.8in /  1009.4hPa NE 6.4mph /  10.3km/h 10.4mph /  16.7km/h 89% 0in /  0.0mm
20:54 56.7 °F /  13.7 °C 53.2 °F /  11.8 °C 29.8in /  1009.4hPa NE 6.4mph /  10.3km/h 10.2mph /  16.4km/h 88.4% 0in /  0.0mm
20:59 56.7 °F /  13.7 °C 53.1 °F /  11.7 °C 29.8in /  1009.2hPa NE 6.4mph /  10.3km/h 10.4mph /  16.7km/h 88% 0in /  0.0mm
21:04 56.7 °F /  13.7 °C 53.1 °F /  11.7 °C 29.8in /  1009.2hPa NE 6.3mph /  10.1km/h 10mph /  16.1km/h 88% 0in /  0.0mm
21:09 56.7 °F /  13.7 °C 53.1 °F /  11.7 °C 29.8in /  1009.3hPa NE 6.2mph /  10km/h 10mph /  16.1km/h 88% 0in /  0.0mm
21:14 56.7 °F /  13.7 °C 53.1 °F /  11.7 °C 29.8in /  1009.3hPa NE 6mph /  9.6km/h 9mph /  14.5km/h 88% 0in /  0.0mm
21:19 56.7 °F /  13.7 °C 53.2 °F /  11.8 °C 29.8in /  1009.3hPa NE 5.9mph /  9.5km/h 9.2mph /  14.8km/h 88.5% 0in /  0.0mm
21:24 56.5 °F /  13.6 °C 53.2 °F /  11.8 °C 29.8in /  1009.4hPa NE 5.5mph /  8.9km/h 9mph /  14.5km/h 89% 0in /  0.0mm
21:29 56.3 °F /  13.5 °C 53.1 °F /  11.7 °C 29.8in /  1009.4hPa NE 5.4mph /  8.7km/h 8.1mph /  13km/h 89% 0in /  0.0mm
21:34 56.3 °F /  13.5 °C 53.1 °F /  11.7 °C 29.8in /  1009.4hPa NE 5.4mph /  8.7km/h 8mph /  12.9km/h 89% 0in /  0.0mm
21:39 56.3 °F /  13.5 °C 53.1 °F /  11.7 °C 29.8in /  1009.4hPa NE 5.4mph /  8.7km/h 7mph /  11.3km/h 89% 0in /  0.0mm
21:44 56.1 °F /  13.4 °C 53.1 °F /  11.7 °C 29.8in /  1009.3hPa NE 4.9mph /  7.9km/h 7mph /  11.3km/h 89.5% 0in /  0.0mm
21:49 56.1 °F /  13.4 °C 53.2 °F /  11.8 °C 29.8in /  1009.3hPa NE 4.7mph /  7.6km/h 7mph /  11.3km/h 90% 0in /  0.0mm
21:54 56.1 °F /  13.4 °C 53.1 °F /  11.7 °C 29.8in /  1009.3hPa NNE 4.2mph /  6.8km/h 5mph /  8km/h 89.7% 0in /  0.0mm
21:59 56.1 °F /  13.4 °C 53.1 °F /  11.7 °C 29.8in /  1009.2hPa NNE 4mph /  6.5km/h 5mph /  8km/h 89.5% 0in /  0.0mm
22:04 56.1 °F /  13.4 °C 53.2 °F /  11.8 °C 29.8in /  1009.2hPa NNE 2.8mph /  4.5km/h 4mph /  6.4km/h 90% 0in /  0.0mm
22:09 56.1 °F /  13.4 °C 53.2 °F /  11.8 °C 29.8in /  1009.3hPa NNE 2.4mph /  3.9km/h 4.6mph /  7.4km/h 90% 0in /  0.0mm
22:14 56.1 °F /  13.4 °C 53.2 °F /  11.8 °C 29.8in /  1009.3hPa NNE 2mph /  3.2km/h 5.2mph /  8.4km/h 90% 0in /  0.0mm
22:19 56.1 °F /  13.4 °C 53.2 °F /  11.8 °C 29.8in /  1009.3hPa Este 1.8mph /  2.9km/h 5.2mph /  8.4km/h 90% 0in /  0.0mm
22:24 56.1 °F /  13.4 °C 53.2 °F /  11.8 °C 29.8in /  1009.4hPa ESE 2.7mph /  4.4km/h 5.2mph /  8.4km/h 89.7% 0in /  0.0mm
22:29 56.3 °F /  13.5 °C 53.1 °F /  11.7 °C 29.8in /  1009.4hPa Este 3.1mph /  5km/h 5mph /  8km/h 89% 0in /  0.0mm
22:34 56.3 °F /  13.5 °C 52.9 °F /  11.6 °C 29.8in /  1009.4hPa ENE 3.1mph /  5km/h 6.9mph /  11.1km/h 88.2% 0in /  0.0mm
22:39 56.3 °F /  13.5 °C 52.7 °F /  11.5 °C 29.8in /  1009.4hPa ENE 3.1mph /  5km/h 7mph /  11.3km/h 87.4% 0in /  0.0mm
22:44 56.5 °F /  13.6 °C 52.5 °F /  11.4 °C 29.8in /  1009.3hPa Este 3.5mph /  5.6km/h 7.4mph /  11.9km/h 86.8% 0in /  0.0mm
22:49 56.5 °F /  13.6 °C 52.3 °F /  11.3 °C 29.8in /  1009.3hPa ENE 3.6mph /  5.8km/h 7mph /  11.3km/h 86% 0in /  0.0mm
22:54 56.5 °F /  13.6 °C 52.2 °F /  11.2 °C 29.8in /  1009.4hPa ENE 3.9mph /  6.2km/h 6.9mph /  11.1km/h 85.5% 0in /  0.0mm
22:59 56.3 °F /  13.5 °C 51.8 °F /  11 °C 29.8in /  1009.4hPa ENE 4mph /  6.5km/h 7mph /  11.3km/h 85% 0in /  0.0mm
23:04 56.3 °F /  13.5 °C 51.8 °F /  11 °C 29.8in /  1009.4hPa ENE 4mph /  6.5km/h 6.9mph /  11.1km/h 85% 0in /  0.0mm
23:09 56.1 °F /  13.4 °C 51.8 °F /  11 °C 29.8in /  1009.4hPa NE 4mph /  6.5km/h 8.1mph /  13km/h 85% 0in /  0.0mm
23:14 56.1 °F /  13.4 °C 51.6 °F /  10.9 °C 29.8in /  1009.1hPa NE 4.2mph /  6.8km/h 8.1mph /  13km/h 85% 0in /  0.0mm
23:19 55.9 °F /  13.3 °C 51.6 °F /  10.9 °C 29.8in /  1009.1hPa NE 4.3mph /  6.9km/h 9.2mph /  14.8km/h 85% 0in /  0.0mm
23:24 55.9 °F /  13.3 °C 51.4 °F /  10.8 °C 29.8in /  1009.1hPa NE 4.6mph /  7.4km/h 9mph /  14.5km/h 85% 0in /  0.0mm
23:29 55.8 °F /  13.2 °C 51.4 °F /  10.8 °C 29.8in /  1009.0hPa NE 4.7mph /  7.6km/h 7mph /  11.3km/h 85% 0in /  0.0mm
23:34 55.8 °F /  13.2 °C 51.3 °F /  10.7 °C 29.8in /  1009.0hPa NNE 4.2mph /  6.8km/h 7mph /  11.3km/h 85% 0in /  0.0mm
23:39 55.6 °F /  13.1 °C 51.1 °F /  10.6 °C 29.8in /  1009.0hPa NNE 4mph /  6.5km/h 7mph /  11.3km/h 85% 0in /  0.0mm
23:44 55.4 °F /  13 °C 51.1 °F /  10.6 °C 29.8in /  1009.0hPa NE 3.4mph /  5.4km/h 5.9mph /  9.5km/h 85.1% 0in /  0.0mm
23:49 55.2 °F /  12.9 °C 51.1 °F /  10.6 °C 29.8in /  1009.0hPa NNE 3.1mph /  5km/h 8.1mph /  13km/h 86% 0in /  0.0mm
23:54 55.2 °F /  12.9 °C 51.1 °F /  10.6 °C 29.8in /  1009.0hPa NNE 4mph /  6.4km/h 8.5mph /  13.7km/h 86% 0in /  0.0mm
23:59 55.2 °F /  12.9 °C 50.9 °F /  10.5 °C 29.8in /  1008.9hPa NE 4.3mph /  6.9km/h 9mph /  14.5km/h 85.4% 0in /  0.0mm
Murcia-Puente Tocinos, España
Compliments of Weather Underground - 3.25 mb

La estación de MeteoMurcia.com, publica sus datos en los siguientes proyectos:

Weather Underground PWS IMURCIAP2 Meteoclimatic www.awekas.at

W3Counter
Web Analytics